Time;durP1;ratioP1;P1;durP2;ratioP2;P2;SDS_P1;SDS_P2;PMS_P1;PMS_P2;Temp;Humidity;BMP_temperature;BMP_pressure;BME280_temperature;BME280_humidity;BME280_pressure;Samples;Min_cycle;Max_cycle;Signal;HPM_P1;HPM_P2
2023/07/24 00:01:58;;;;;;;5.20;3.35;;;;;;;;;;10345935;28;20030;-59
2023/07/24 00:07:00;;;;;;;5.35;3.45;;;;;;;;;;10335234;28;20502;-59
2023/07/24 00:12:00;;;;;;;4.88;3.22;;;;;;;;;;10344967;28;20457;-59
2023/07/24 00:17:01;;;;;;;5.20;3.17;;;;;;;;;;10331402;28;20034;-58
2023/07/24 00:22:01;;;;;;;4.45;2.63;;;;;;;;;;10344195;28;20038;-59
2023/07/24 00:27:02;;;;;;;3.78;3.13;;;;;;;;;;10334284;28;20077;-58
2023/07/24 00:32:03;;;;;;;4.53;3.15;;;;;;;;;;10342696;28;20316;-58
2023/07/24 00:37:04;;;;;;;4.50;3.00;;;;;;;;;;10357545;28;20050;-58
2023/07/24 00:42:05;;;;;;;3.40;2.95;;;;;;;;;;10348591;28;20108;-58
2023/07/24 00:47:06;;;;;;;5.57;3.22;;;;;;;;;;10351062;28;20433;-57
2023/07/24 00:52:08;;;;;;;4.93;2.97;;;;;;;;;;10349706;28;20113;-57
2023/07/24 00:57:08;;;;;;;4.97;3.10;;;;;;;;;;10343590;28;20031;-58
2023/07/24 01:02:09;;;;;;;3.22;2.55;;;;;;;;;;10329463;28;20493;-58
2023/07/24 01:07:10;;;;;;;4.78;3.08;;;;;;;;;;10330785;28;20081;-58
2023/07/24 01:12:26;;;;;;;4.32;2.97;;;;;;;;;;10342654;28;20112;-59
2023/07/24 01:17:29;;;;;;;3.45;2.90;;;;;;;;;;10330692;28;20022;-58
2023/07/24 01:22:29;;;;;;;4.05;2.88;;;;;;;;;;10326182;28;20037;-58
2023/07/24 01:27:30;;;;;;;4.15;2.70;;;;;;;;;;10355144;28;20482;-58
2023/07/24 01:32:31;;;;;;;3.80;2.85;;;;;;;;;;10331007;28;20030;-58
2023/07/24 01:37:33;;;;;;;3.70;2.83;;;;;;;;;;10338668;28;20042;-58
2023/07/24 01:42:35;;;;;;;2.75;2.55;;;;;;;;;;10345609;28;20038;-58
2023/07/24 01:47:36;;;;;;;2.75;2.55;;;;;;;;;;10345987;28;20034;-59
2023/07/24 01:52:36;;;;;;;3.05;2.50;;;;;;;;;;10364942;28;20021;-58
2023/07/24 01:57:37;;;;;;;3.13;2.72;;;;;;;;;;10349564;28;20026;-58
2023/07/24 02:02:37;;;;;;;2.97;2.33;;;;;;;;;;10341681;28;20163;-58
2023/07/24 02:07:38;;;;;;;3.17;2.80;;;;;;;;;;10337708;28;20038;-58
2023/07/24 02:12:38;;;;;;;4.22;2.72;;;;;;;;;;10336143;28;20030;-59
2023/07/24 02:17:39;;;;;;;2.90;2.58;;;;;;;;;;10340132;28;20053;-57
2023/07/24 02:22:39;;;;;;;3.47;2.72;;;;;;;;;;10363569;28;20030;-58
2023/07/24 02:27:40;;;;;;;6.93;2.80;;;;;;;;;;10353897;28;20022;-58
2023/07/24 02:32:40;;;;;;;3.08;2.50;;;;;;;;;;10352226;28;20029;-58
2023/07/24 02:37:41;;;;;;;2.95;2.25;;;;;;;;;;10340179;28;20058;-58
2023/07/24 02:42:42;;;;;;;5.55;3.03;;;;;;;;;;10341030;28;20045;-57
2023/07/24 02:47:42;;;;;;;3.42;2.17;;;;;;;;;;10352281;28;20038;-58
2023/07/24 02:52:43;;;;;;;3.72;2.60;;;;;;;;;;10357538;28;20034;-58
2023/07/24 02:57:43;;;;;;;4.63;2.50;;;;;;;;;;10345078;28;20041;-57
2023/07/24 03:02:44;;;;;;;3.08;2.38;;;;;;;;;;10334872;28;20026;-58
2023/07/24 03:07:44;;;;;;;2.78;2.40;;;;;;;;;;10360567;28;20042;-57
2023/07/24 03:12:45;;;;;;;3.53;2.50;;;;;;;;;;10359995;28;20031;-59
2023/07/24 03:17:46;;;;;;;2.47;2.28;;;;;;;;;;10356741;28;20034;-58
2023/07/24 03:22:46;;;;;;;3.38;2.72;;;;;;;;;;10333444;28;20034;-58
2023/07/24 03:27:47;;;;;;;2.90;2.60;;;;;;;;;;10347251;28;20033;-58
2023/07/24 03:32:47;;;;;;;2.60;2.13;;;;;;;;;;10369363;28;20087;-58
2023/07/24 03:37:48;;;;;;;2.90;2.50;;;;;;;;;;10357020;28;20050;-57
2023/07/24 03:42:49;;;;;;;3.10;2.50;;;;;;;;;;10351182;28;20042;-59
2023/07/24 03:47:49;;;;;;;3.78;2.45;;;;;;;;;;10366890;28;20036;-59
2023/07/24 03:52:50;;;;;;;5.82;2.50;;;;;;;;;;10350459;28;20382;-58
2023/07/24 03:57:50;;;;;;;2.50;2.30;;;;;;;;;;10351533;28;20389;-58
2023/07/24 04:02:51;;;;;;;3.10;2.47;;;;;;;;;;10342692;28;20034;-58
2023/07/24 04:07:51;;;;;;;2.85;2.45;;;;;;;;;;10345269;28;20026;-58
2023/07/24 04:12:52;;;;;;;2.85;2.22;;;;;;;;;;10368973;28;20034;-57
2023/07/24 04:17:53;;;;;;;2.83;2.38;;;;;;;;;;10344279;28;20034;-58
2023/07/24 04:22:53;;;;;;;2.30;2.10;;;;;;;;;;10369336;28;20041;-57
2023/07/24 04:27:54;;;;;;;3.20;2.40;;;;;;;;;;10356736;28;20026;-58
2023/07/24 04:32:54;;;;;;;2.47;2.28;;;;;;;;;;10344554;28;20378;-58
2023/07/24 04:37:56;;;;;;;2.40;2.20;;;;;;;;;;10354478;28;20046;-58
2023/07/24 04:42:57;;;;;;;3.15;2.17;;;;;;;;;;10343671;28;20377;-58
2023/07/24 04:47:58;;;;;;;3.10;2.53;;;;;;;;;;10353370;28;20030;-57
2023/07/24 04:52:59;;;;;;;2.65;2.35;;;;;;;;;;10356156;28;20030;-57
2023/07/24 04:57:59;;;;;;;3.55;2.75;;;;;;;;;;10358240;28;20092;-59
2023/07/24 05:03:00;;;;;;;2.75;2.30;;;;;;;;;;10342399;28;20018;-57
2023/07/24 05:08:01;;;;;;;5.90;2.53;;;;;;;;;;10347657;28;20041;-58
2023/07/24 05:13:01;;;;;;;5.43;2.72;;;;;;;;;;10339043;28;20034;-57
2023/07/24 05:18:02;;;;;;;3.28;2.50;;;;;;;;;;10339378;28;20049;-57
2023/07/24 05:23:02;;;;;;;2.30;2.08;;;;;;;;;;10344173;28;20033;-57
2023/07/24 05:28:03;;;;;;;3.25;2.45;;;;;;;;;;10346278;28;20048;-58
2023/07/24 05:33:04;;;;;;;2.50;2.30;;;;;;;;;;10363701;28;20026;-57
2023/07/24 05:38:04;;;;;;;9.73;2.28;;;;;;;;;;10344649;28;20402;-58
2023/07/24 05:43:05;;;;;;;15.07;6.40;;;;;;;;;;10357708;28;20048;-58
2023/07/24 05:48:05;;;;;;;16.70;6.65;;;;;;;;;;10345457;28;20061;-58
2023/07/24 05:53:07;;;;;;;10.48;6.53;;;;;;;;;;10335273;28;20074;-58
2023/07/24 05:58:08;;;;;;;13.07;6.40;;;;;;;;;;10340396;28;20049;-59
2023/07/24 06:03:09;;;;;;;12.20;6.25;;;;;;;;;;10348947;28;20505;-58
2023/07/24 06:08:10;;;;;;;21.33;6.88;;;;;;;;;;10356820;28;20181;-58
2023/07/24 06:13:11;;;;;;;32.08;7.93;;;;;;;;;;10360797;28;20061;-58
2023/07/24 06:18:12;;;;;;;26.75;8.00;;;;;;;;;;10358806;28;20026;-58
2023/07/24 06:23:12;;;;;;;35.55;7.40;;;;;;;;;;10366465;28;20040;-59
2023/07/24 06:28:13;;;;;;;23.83;6.60;;;;;;;;;;10362617;28;20281;-58
2023/07/24 06:33:13;;;;;;;20.17;7.47;;;;;;;;;;10372601;28;20030;-59
2023/07/24 06:38:14;;;;;;;20.60;6.38;;;;;;;;;;10372342;28;20049;-58
2023/07/24 06:43:14;;;;;;;20.17;6.50;;;;;;;;;;10373411;28;20037;-58
2023/07/24 06:48:15;;;;;;;19.02;7.28;;;;;;;;;;10370592;28;20033;-60
2023/07/24 06:53:15;;;;;;;16.05;6.65;;;;;;;;;;10372525;28;20037;-59
2023/07/24 06:58:16;;;;;;;21.73;7.38;;;;;;;;;;10354979;28;20030;-60
2023/07/24 07:03:17;;;;;;;11.70;6.57;;;;;;;;;;10334239;28;20026;-59
2023/07/24 07:08:17;;;;;;;17.25;7.22;;;;;;;;;;10339819;28;20029;-58
2023/07/24 07:13:18;;;;;;;17.73;6.93;;;;;;;;;;10356567;28;20018;-58
2023/07/24 07:18:18;;;;;;;15.55;6.18;;;;;;;;;;10350392;28;20026;-57
2023/07/24 07:23:20;;;;;;;14.77;6.80;;;;;;;;;;10355741;28;20023;-58
2023/07/24 07:28:21;;;;;;;15.75;6.43;;;;;;;;;;10334394;28;21847;-58
2023/07/24 07:33:22;;;;;;;15.20;6.20;;;;;;;;;;10358862;28;20034;-59
2023/07/24 07:38:22;;;;;;;14.48;6.90;;;;;;;;;;10333309;28;20053;-58
2023/07/24 07:43:23;;;;;;;11.32;5.88;;;;;;;;;;10358495;28;20060;-58
2023/07/24 07:48:23;;;;;;;12.57;6.45;;;;;;;;;;10369311;28;20117;-58
2023/07/24 07:53:24;;;;;;;11.50;6.43;;;;;;;;;;10345268;28;20030;-57
2023/07/24 07:58:25;;;;;;;10.68;6.32;;;;;;;;;;10341344;28;20033;-58
2023/07/24 08:03:25;;;;;;;13.07;6.20;;;;;;;;;;10364073;28;20022;-58
2023/07/24 08:08:26;;;;;;;12.07;5.97;;;;;;;;;;10338764;28;20019;-58
2023/07/24 08:13:27;;;;;;;9.60;6.03;;;;;;;;;;10333110;28;20022;-58
2023/07/24 08:18:27;;;;;;;16.48;5.50;;;;;;;;;;10346127;28;20041;-58
2023/07/24 08:23:28;;;;;;;13.88;5.80;;;;;;;;;;10357654;28;20085;-58
2023/07/24 08:28:28;;;;;;;14.95;6.20;;;;;;;;;;10333979;28;20026;-58
2023/07/24 08:33:29;;;;;;;10.63;5.95;;;;;;;;;;10357695;28;20030;-58
2023/07/24 08:38:30;;;;;;;10.77;5.97;;;;;;;;;;10340496;28;20179;-58
2023/07/24 08:43:33;;;;;;;11.05;5.70;;;;;;;;;;10344293;28;20465;-58
2023/07/24 08:48:40;;;;;;;10.18;6.30;;;;;;;;;;10363447;28;20030;-58
2023/07/24 08:53:43;;;;;;;11.38;6.45;;;;;;;;;;10355681;28;20041;-58
2023/07/24 08:58:43;;;;;;;10.48;5.80;;;;;;;;;;10340350;28;20045;-59
2023/07/24 09:03:44;;;;;;;8.98;5.97;;;;;;;;;;10337382;28;20037;-58
2023/07/24 09:08:45;;;;;;;9.35;6.30;;;;;;;;;;10347370;28;20258;-58
2023/07/24 09:13:46;;;;;;;14.38;6.43;;;;;;;;;;10345895;28;20286;-58
2023/07/24 09:18:46;;;;;;;10.20;5.97;;;;;;;;;;10322521;28;20100;-58
2023/07/24 09:23:47;;;;;;;11.07;6.25;;;;;;;;;;10342889;28;20034;-58
2023/07/24 09:28:54;;;;;;;8.32;6.07;;;;;;;;;;10354641;28;20536;-58
2023/07/24 09:33:55;;;;;;;12.27;6.00;;;;;;;;;;10347346;28;20041;-58
2023/07/24 09:39:00;;;;;;;9.90;6.03;;;;;;;;;;10349476;28;20511;-58
2023/07/24 09:44:01;;;;;;;13.13;6.20;;;;;;;;;;10340983;28;20054;-57
2023/07/24 09:49:02;;;;;;;10.02;6.32;;;;;;;;;;10344850;28;20373;-57
2023/07/24 09:54:15;;;;;;;10.35;6.20;;;;;;;;;;10351316;28;20033;-57
2023/07/24 09:59:16;;;;;;;9.18;5.55;;;;;;;;;;10351164;28;20121;-58
2023/07/24 10:04:18;;;;;;;10.95;6.38;;;;;;;;;;10311250;28;20050;-57
2023/07/24 10:09:21;;;;;;;10.63;5.88;;;;;;;;;;10336050;28;20393;-58
2023/07/24 10:14:22;;;;;;;11.35;6.53;;;;;;;;;;10317866;28;20037;-57
2023/07/24 10:19:23;;;;;;;11.02;6.65;;;;;;;;;;10351721;28;20030;-58
2023/07/24 10:24:30;;;;;;;9.10;5.85;;;;;;;;;;10356184;28;20501;-58
2023/07/24 10:29:35;;;;;;;6.32;5.15;;;;;;;;;;10340575;28;20030;-58
2023/07/24 10:34:39;;;;;;;7.88;5.10;;;;;;;;;;10329477;28;20035;-57
2023/07/24 10:39:40;;;;;;;9.80;6.05;;;;;;;;;;10347738;28;20117;-58
2023/07/24 10:44:41;;;;;;;10.02;5.72;;;;;;;;;;10342227;28;20030;-58
2023/07/24 10:49:51;;;;;;;8.15;5.70;;;;;;;;;;10361025;28;20030;-58
2023/07/24 10:54:51;;;;;;;10.48;5.57;;;;;;;;;;10352379;28;20026;-58
2023/07/24 10:59:52;;;;;;;11.00;6.60;;;;;;;;;;10349525;28;20050;-58
2023/07/24 11:04:52;;;;;;;8.05;5.80;;;;;;;;;;10342636;28;20038;-58
2023/07/24 11:09:53;;;;;;;10.35;6.13;;;;;;;;;;10349723;28;20025;-58
2023/07/24 11:14:54;;;;;;;11.32;6.15;;;;;;;;;;10347543;28;20505;-58
2023/07/24 11:20:15;;;;;;;9.70;6.35;;;;;;;;;;10368684;28;20030;-58
2023/07/24 11:25:16;;;;;;;9.13;5.97;;;;;;;;;;10359421;28;20525;-58
2023/07/24 11:30:21;;;;;;;11.73;6.60;;;;;;;;;;10357143;28;20112;-58
2023/07/24 11:35:22;;;;;;;9.15;6.28;;;;;;;;;;10358158;28;20520;-59
2023/07/24 11:40:36;;;;;;;11.30;6.20;;;;;;;;;;10357680;28;20026;-59
2023/07/24 11:45:44;;;;;;;8.77;6.35;;;;;;;;;;10337533;28;20034;-58
2023/07/24 11:50:48;;;;;;;10.68;6.70;;;;;;;;;;10352599;28;20072;-58
2023/07/24 11:55:51;;;;;;;14.93;7.00;;;;;;;;;;10347694;28;20030;-58
2023/07/24 12:00:53;;;;;;;9.00;7.13;;;;;;;;;;10347475;28;20033;-58
2023/07/24 12:05:53;;;;;;;13.63;6.72;;;;;;;;;;10367037;28;20108;-58
2023/07/24 12:10:54;;;;;;;12.32;7.15;;;;;;;;;;10364893;28;20041;-57
2023/07/24 12:15:54;;;;;;;15.32;7.68;;;;;;;;;;10365493;28;20030;-58
2023/07/24 12:20:55;;;;;;;19.10;8.48;;;;;;;;;;10354578;28;20032;-57
2023/07/24 12:25:55;;;;;;;16.88;8.32;;;;;;;;;;10353578;28;20575;-58
2023/07/24 12:30:56;;;;;;;15.18;8.75;;;;;;;;;;10359825;28;20363;-57
2023/07/24 12:35:57;;;;;;;12.15;8.05;;;;;;;;;;10367454;28;20046;-57
2023/07/24 12:40:57;;;;;;;20.38;8.40;;;;;;;;;;10363590;28;20583;-58
2023/07/24 12:45:58;;;;;;;16.90;8.43;;;;;;;;;;10349182;28;20017;-57
2023/07/24 12:51:00;;;;;;;15.00;8.35;;;;;;;;;;10350714;28;20033;-58
2023/07/24 12:56:00;;;;;;;16.13;8.55;;;;;;;;;;10342567;28;20266;-58
2023/07/24 13:01:01;;;;;;;19.50;8.63;;;;;;;;;;10348676;28;20320;-59
2023/07/24 13:06:01;;;;;;;15.68;8.25;;;;;;;;;;10352760;28;20092;-58
2023/07/24 13:11:02;;;;;;;15.98;7.88;;;;;;;;;;10347798;28;20057;-58
2023/07/24 13:16:03;;;;;;;16.83;8.73;;;;;;;;;;10341244;28;20037;-59
2023/07/24 13:21:06;;;;;;;15.77;8.00;;;;;;;;;;10332958;28;20033;-59
2023/07/24 13:26:10;;;;;;;12.48;7.72;;;;;;;;;;10366853;28;20052;-58
2023/07/24 13:31:16;;;;;;;12.00;7.35;;;;;;;;;;10352732;28;20782;-58
2023/07/24 13:36:17;;;;;;;20.20;8.30;;;;;;;;;;10359270;28;20088;-58
2023/07/24 13:41:17;;;;;;;14.88;8.38;;;;;;;;;;10351714;28;20034;-58
2023/07/24 13:46:18;;;;;;;12.30;7.70;;;;;;;;;;10363825;28;20362;-59
2023/07/24 13:51:19;;;;;;;16.33;7.72;;;;;;;;;;10351223;28;20504;-58
2023/07/24 13:56:22;;;;;;;16.52;7.57;;;;;;;;;;10364792;28;20029;-59
2023/07/24 14:01:22;;;;;;;14.23;7.80;;;;;;;;;;10353620;28;20038;-59
2023/07/24 14:06:23;;;;;;;15.68;8.23;;;;;;;;;;10338890;28;20037;-58
2023/07/24 14:11:24;;;;;;;11.18;8.20;;;;;;;;;;10348483;28;20038;-58
2023/07/24 14:16:25;;;;;;;16.40;7.80;;;;;;;;;;10352921;28;20030;-58
2023/07/24 14:21:25;;;;;;;15.23;8.95;;;;;;;;;;10355883;28;20030;-58
2023/07/24 14:26:26;;;;;;;11.98;7.85;;;;;;;;;;10357477;28;20030;-57
2023/07/24 14:31:28;;;;;;;13.77;8.10;;;;;;;;;;10349640;28;20026;-57
2023/07/24 14:36:33;;;;;;;15.13;8.70;;;;;;;;;;10363314;28;20486;-58
2023/07/24 14:41:35;;;;;;;13.18;7.95;;;;;;;;;;10366774;28;20030;-58
2023/07/24 14:46:35;;;;;;;15.32;8.52;;;;;;;;;;10366311;28;20034;-58
2023/07/24 14:51:37;;;;;;;15.00;8.30;;;;;;;;;;10366028;28;20034;-58
2023/07/24 14:56:37;;;;;;;13.07;8.05;;;;;;;;;;10357911;28;20089;-58
2023/07/24 15:01:38;;;;;;;14.35;8.70;;;;;;;;;;10345849;28;20057;-58
2023/07/24 15:06:39;;;;;;;15.32;8.65;;;;;;;;;;10347580;28;20026;-57
2023/07/24 15:11:39;;;;;;;13.85;8.43;;;;;;;;;;10366145;28;20025;-57
2023/07/24 15:16:40;;;;;;;10.80;8.38;;;;;;;;;;10370041;28;20040;-57
2023/07/24 15:21:40;;;;;;;11.90;8.23;;;;;;;;;;10355232;28;20362;-58
2023/07/24 15:26:41;;;;;;;16.20;8.25;;;;;;;;;;10369978;28;20034;-58
2023/07/24 15:31:42;;;;;;;12.88;8.52;;;;;;;;;;10367691;28;20042;-58
2023/07/24 15:36:42;;;;;;;12.30;7.80;;;;;;;;;;10347174;28;20042;-58
2023/07/24 15:41:43;;;;;;;13.20;8.85;;;;;;;;;;10350102;28;20026;-58
2023/07/24 15:46:44;;;;;;;13.82;8.45;;;;;;;;;;10371723;28;20092;-59
2023/07/24 15:51:45;;;;;;;10.88;7.90;;;;;;;;;;10368236;28;20041;-58
2023/07/24 15:56:45;;;;;;;10.82;7.70;;;;;;;;;;10361845;28;20525;-58
2023/07/24 16:01:46;;;;;;;11.88;8.30;;;;;;;;;;10335912;28;20022;-58
2023/07/24 16:06:47;;;;;;;10.15;8.02;;;;;;;;;;10331327;28;20034;-58
2023/07/24 16:11:48;;;;;;;11.60;7.95;;;;;;;;;;10345611;28;20034;-58
2023/07/24 16:16:49;;;;;;;10.18;8.18;;;;;;;;;;10326684;28;20043;-58
2023/07/24 16:21:51;;;;;;;14.38;7.78;;;;;;;;;;10345361;28;20018;-59
2023/07/24 16:26:51;;;;;;;12.48;7.63;;;;;;;;;;10371658;28;20022;-58
2023/07/24 16:31:52;;;;;;;12.70;7.95;;;;;;;;;;10344389;28;20033;-58
2023/07/24 16:36:53;;;;;;;10.85;8.35;;;;;;;;;;10355019;28;20137;-58
2023/07/24 16:41:53;;;;;;;9.70;7.90;;;;;;;;;;10341952;28;20034;-58
2023/07/24 16:46:54;;;;;;;12.48;8.32;;;;;;;;;;10342700;28;20038;-58
2023/07/24 16:51:55;;;;;;;12.43;8.63;;;;;;;;;;10342923;28;20069;-58
2023/07/24 16:56:56;;;;;;;10.63;7.97;;;;;;;;;;10331203;28;20489;-58
2023/07/24 17:01:56;;;;;;;12.82;8.55;;;;;;;;;;10355416;28;20037;-59
2023/07/24 17:06:57;;;;;;;10.93;8.30;;;;;;;;;;10345428;28;20033;-58
2023/07/24 17:11:58;;;;;;;13.90;9.07;;;;;;;;;;10364397;28;20040;-59
2023/07/24 17:17:00;;;;;;;15.63;9.57;;;;;;;;;;10356528;28;20033;-58
2023/07/24 17:22:00;;;;;;;14.82;9.48;;;;;;;;;;10362885;28;20045;-58
2023/07/24 17:27:01;;;;;;;13.88;9.32;;;;;;;;;;10366787;28;20034;-59
2023/07/24 17:32:01;;;;;;;16.00;10.43;;;;;;;;;;10365325;28;20041;-58
2023/07/24 17:37:02;;;;;;;11.43;8.95;;;;;;;;;;10348257;28;20137;-58
2023/07/24 17:42:03;;;;;;;13.02;8.80;;;;;;;;;;10364668;28;20191;-58
2023/07/24 17:47:03;;;;;;;13.73;9.35;;;;;;;;;;10363926;28;21083;-58
2023/07/24 17:52:05;;;;;;;16.95;10.75;;;;;;;;;;10360892;28;20033;-59
2023/07/24 17:57:06;;;;;;;14.35;10.20;;;;;;;;;;10363547;28;20050;-58
2023/07/24 18:02:07;;;;;;;17.85;10.73;;;;;;;;;;10365453;28;20116;-58
2023/07/24 18:07:07;;;;;;;18.23;10.68;;;;;;;;;;10351495;28;20030;-59
2023/07/24 18:12:08;;;;;;;18.00;9.80;;;;;;;;;;10352910;28;20034;-58
2023/07/24 18:17:09;;;;;;;17.95;10.98;;;;;;;;;;10342884;28;20053;-59
2023/07/24 18:22:11;;;;;;;17.05;10.80;;;;;;;;;;10355183;28;20378;-59
2023/07/24 18:27:11;;;;;;;14.40;10.98;;;;;;;;;;10356383;28;20377;-59
2023/07/24 18:32:12;;;;;;;18.52;10.93;;;;;;;;;;10349327;28;20018;-59
2023/07/24 18:37:12;;;;;;;18.30;10.82;;;;;;;;;;10368159;28;20044;-59
2023/07/24 18:42:13;;;;;;;21.58;12.77;;;;;;;;;;10347930;28;20535;-59
2023/07/24 18:47:14;;;;;;;25.08;16.98;;;;;;;;;;10346321;28;20416;-59
2023/07/24 18:52:14;;;;;;;21.55;15.52;;;;;;;;;;10360214;28;20413;-59
2023/07/24 18:57:15;;;;;;;22.70;16.05;;;;;;;;;;10345836;28;20116;-59
2023/07/24 19:02:15;;;;;;;24.00;15.32;;;;;;;;;;10349859;28;20030;-59
2023/07/24 19:07:16;;;;;;;18.95;13.32;;;;;;;;;;10344836;28;20022;-60
2023/07/24 19:12:17;;;;;;;19.33;13.05;;;;;;;;;;10345200;28;20491;-59
2023/07/24 19:17:18;;;;;;;20.73;13.52;;;;;;;;;;10355613;28;20092;-58
2023/07/24 19:22:18;;;;;;;16.17;11.40;;;;;;;;;;10353143;28;20201;-59
2023/07/24 19:27:19;;;;;;;15.48;10.40;;;;;;;;;;10359557;28;20033;-59
2023/07/24 19:32:21;;;;;;;16.30;10.70;;;;;;;;;;10361733;28;20048;-59
2023/07/24 19:37:23;;;;;;;18.63;11.40;;;;;;;;;;10353865;28;20053;-59
2023/07/24 19:42:23;;;;;;;13.70;10.77;;;;;;;;;;10335657;28;20033;-59
2023/07/24 19:47:24;;;;;;;18.13;11.98;;;;;;;;;;10346174;28;20033;-59
2023/07/24 19:52:25;;;;;;;16.63;10.40;;;;;;;;;;10343453;28;20026;-59
2023/07/24 19:57:25;;;;;;;18.67;11.43;;;;;;;;;;10365720;28;20034;-59
2023/07/24 20:02:26;;;;;;;17.23;9.68;;;;;;;;;;10357555;28;20061;-58
2023/07/24 20:07:26;;;;;;;15.55;10.75;;;;;;;;;;10339214;28;20038;-59
2023/07/24 20:12:27;;;;;;;14.02;10.10;;;;;;;;;;10350773;28;20033;-59
2023/07/24 20:17:27;;;;;;;15.43;10.00;;;;;;;;;;10341120;28;20085;-59
2023/07/24 20:22:28;;;;;;;18.85;10.77;;;;;;;;;;10343532;28;20023;-59
2023/07/24 20:27:29;;;;;;;13.73;9.32;;;;;;;;;;10340025;28;20410;-58
2023/07/24 20:32:31;;;;;;;15.07;8.23;;;;;;;;;;10346706;28;20077;-58
2023/07/24 20:37:31;;;;;;;11.57;7.07;;;;;;;;;;10347830;28;20557;-58
2023/07/24 20:42:32;;;;;;;17.48;6.38;;;;;;;;;;10345456;28;20034;-59
2023/07/24 20:47:32;;;;;;;10.40;5.63;;;;;;;;;;10351169;28;20144;-61
2023/07/24 20:52:34;;;;;;;12.98;4.38;;;;;;;;;;10361727;28;20030;-61
2023/07/24 20:57:34;;;;;;;7.93;4.70;;;;;;;;;;10353184;28;20040;-61
2023/07/24 21:02:35;;;;;;;10.57;4.22;;;;;;;;;;10350852;28;20034;-62
2023/07/24 21:07:36;;;;;;;9.55;4.22;;;;;;;;;;10344629;28;20046;-60
2023/07/24 21:12:36;;;;;;;7.13;3.50;;;;;;;;;;10339858;28;20038;-59
2023/07/24 21:17:37;;;;;;;7.60;2.97;;;;;;;;;;10347298;28;20037;-58
2023/07/24 21:22:37;;;;;;;9.55;2.80;;;;;;;;;;10346160;28;20049;-58
2023/07/24 21:27:38;;;;;;;9.20;2.55;;;;;;;;;;10340174;28;20034;-58
2023/07/24 21:32:39;;;;;;;5.43;2.20;;;;;;;;;;10357286;28;20088;-59
2023/07/24 21:37:41;;;;;;;7.40;2.42;;;;;;;;;;10349124;28;20124;-58
2023/07/24 21:42:41;;;;;;;11.85;2.30;;;;;;;;;;10355047;28;20052;-58
2023/07/24 21:47:42;;;;;;;10.07;2.50;;;;;;;;;;10362212;28;20045;-58
2023/07/24 21:52:43;;;;;;;4.18;2.30;;;;;;;;;;10361276;28;20038;-59
2023/07/24 21:57:44;;;;;;;5.15;2.08;;;;;;;;;;10353438;28;20033;-59
2023/07/24 22:02:44;;;;;;;5.68;2.30;;;;;;;;;;10362313;28;20064;-58
2023/07/24 22:07:45;;;;;;;6.65;2.58;;;;;;;;;;10352869;28;20045;-59
2023/07/24 22:12:46;;;;;;;7.97;1.98;;;;;;;;;;10362139;28;20417;-59
2023/07/24 22:17:46;;;;;;;9.00;2.53;;;;;;;;;;10361827;28;20116;-59
2023/07/24 22:22:47;;;;;;;2.72;1.90;;;;;;;;;;10350058;28;20269;-59
2023/07/24 22:27:47;;;;;;;4.32;2.20;;;;;;;;;;10351418;28;20374;-59
2023/07/24 22:32:48;;;;;;;4.05;2.00;;;;;;;;;;10337584;28;20294;-58
2023/07/24 22:37:48;;;;;;;3.13;1.98;;;;;;;;;;10345340;28;20042;-58
2023/07/24 22:42:49;;;;;;;3.63;2.33;;;;;;;;;;10347850;28;20030;-59
2023/07/24 22:47:50;;;;;;;5.00;2.53;;;;;;;;;;10349048;28;20500;-58
2023/07/24 22:52:51;;;;;;;3.25;2.08;;;;;;;;;;10361585;28;20034;-58
2023/07/24 22:57:52;;;;;;;5.20;2.00;;;;;;;;;;10356809;28;20398;-59
2023/07/24 23:02:52;;;;;;;2.38;2.00;;;;;;;;;;10365221;28;20380;-58
2023/07/24 23:07:54;;;;;;;2.95;1.90;;;;;;;;;;10365789;28;20452;-58
2023/07/24 23:12:55;;;;;;;2.88;2.20;;;;;;;;;;10356594;28;20034;-58
2023/07/24 23:17:55;;;;;;;2.22;1.75;;;;;;;;;;10360181;28;20540;-58
2023/07/24 23:22:57;;;;;;;2.35;1.80;;;;;;;;;;10348444;28;20077;-58
2023/07/24 23:27:57;;;;;;;2.33;1.70;;;;;;;;;;10343145;28;20037;-59
2023/07/24 23:32:58;;;;;;;2.78;1.80;;;;;;;;;;10359020;28;20591;-59
2023/07/24 23:37:58;;;;;;;3.70;1.70;;;;;;;;;;10362575;28;20568;-59
2023/07/24 23:42:59;;;;;;;2.22;1.80;;;;;;;;;;10356965;28;20474;-59
2023/07/24 23:48:00;;;;;;;3.85;1.40;;;;;;;;;;10360332;28;20033;-59
2023/07/24 23:53:00;;;;;;;3.05;1.55;;;;;;;;;;10350950;28;20105;-59
2023/07/24 23:58:01;;;;;;;2.35;1.63;;;;;;;;;;10345000;28;20523;-59
